Time,TemperatureF,DewpointF,PressureIn,WindDirection,WindDirectionDegrees,WindSpeedMPH,WindSpeedGustMPH,Humidity,HourlyPrecipIn,Conditions,Clouds,dailyrainin,SolarRadiationWatts/m^2,SoftwareType,DateUTC
2013-02-10 00:03:00,10.9,1.1,30.38,NE,51,0.0,0.0,64,0.00,,,0.20,32767.00,ALWS 1.0-beta,2013-02-10 05:03:00,
2013-02-10 00:08:00,9.6,1.2,30.38,NE,51,0.0,0.0,68,0.00,,,0.00,32767.00,ALWS 1.0-beta,2013-02-10 05:08:00,
2013-02-10 00:13:00,9.7,1.3,30.38,NE,51,0.0,0.0,68,0.00,,,0.00,32767.00,ALWS 1.0-beta,2013-02-10 05:13:00,
2013-02-10 00:18:00,10.0,1.9,30.38,NE,51,0.0,0.0,69,0.00,,,0.00,32767.00,ALWS 1.0-beta,2013-02-10 05:18:00,
2013-02-10 00:23:00,9.8,1.7,30.38,NE,51,0.0,0.0,69,0.00,,,0.00,32767.00,ALWS 1.0-beta,2013-02-10 05:23:00,
2013-02-10 00:28:00,9.4,1.3,30.39,NE,51,0.0,0.0,69,0.00,,,0.00,32767.00,ALWS 1.0-beta,2013-02-10 05:28:00,
2013-02-10 00:33:00,9.1,1.9,30.38,NE,51,0.0,0.0,72,0.00,,,0.00,32767.00,ALWS 1.0-beta,2013-02-10 05:33:00,
2013-02-10 00:38:00,8.7,0.9,30.39,NE,51,0.0,0.0,70,0.00,,,0.00,32767.00,ALWS 1.0-beta,2013-02-10 05:38:00,
2013-02-10 00:43:00,8.9,2.0,30.39,NE,51,0.0,0.0,73,0.00,,,0.00,32767.00,ALWS 1.0-beta,2013-02-10 05:43:00,
2013-02-10 00:48:00,8.6,1.1,30.39,NE,51,0.0,0.0,71,0.00,,,0.00,32767.00,ALWS 1.0-beta,2013-02-10 05:48:00,
2013-02-10 00:53:00,8.4,0.9,30.39,NE,51,0.0,0.0,71,0.00,,,0.00,32767.00,ALWS 1.0-beta,2013-02-10 05:53:00,
2013-02-10 00:58:00,7.7,0.3,30.40,NE,51,0.0,0.0,71,0.00,,,0.00,32767.00,ALWS 1.0-beta,2013-02-10 05:58:00,
2013-02-10 01:03:00,7.2,0.7,30.40,NE,51,0.0,0.0,74,0.00,,,0.00,32767.00,ALWS 1.0-beta,2013-02-10 06:03:00,
2013-02-10 01:08:00,7.0,0.8,30.40,NE,51,0.0,0.0,75,0.00,,,0.00,32767.00,ALWS 1.0-beta,2013-02-10 06:08:00,
2013-02-10 01:13:00,6.8,0.6,30.39,NE,51,0.0,0.0,75,0.00,,,0.00,32767.00,ALWS 1.0-beta,2013-02-10 06:13:00,
2013-02-10 01:18:00,6.4,0.2,30.39,NE,51,0.0,0.0,75,0.00,,,0.00,32767.00,ALWS 1.0-beta,2013-02-10 06:18:00,
2013-02-10 01:23:00,6.5,0.6,30.40,NE,51,0.0,0.0,76,0.00,,,0.00,32767.00,ALWS 1.0-beta,2013-02-10 06:23:00,
2013-02-10 01:28:00,6.5,0.6,30.40,NE,51,0.0,0.0,76,0.00,,,0.00,32767.00,ALWS 1.0-beta,2013-02-10 06:28:00,
2013-02-10 01:33:00,5.7,-0.2,30.40,NE,51,0.0,0.0,76,0.00,,,0.00,32767.00,ALWS 1.0-beta,2013-02-10 06:33:00,
2013-02-10 01:38:00,5.4,-0.2,30.40,NE,51,0.0,0.0,77,0.00,,,0.00,32767.00,ALWS 1.0-beta,2013-02-10 06:38:00,
2013-02-10 01:42:00,4.9,-1.0,30.40,NE,51,0.0,0.0,76,0.00,,,0.00,32767.00,ALWS 1.0-beta,2013-02-10 06:42:00,
2013-02-10 01:47:00,3.6,-2.3,30.40,NE,51,0.0,0.0,76,0.00,,,0.00,32767.00,ALWS 1.0-beta,2013-02-10 06:47:00,
2013-02-10 01:52:00,3.2,-2.1,30.40,NE,51,0.0,0.0,78,0.00,,,0.00,32767.00,ALWS 1.0-beta,2013-02-10 06:52:00,
2013-02-10 01:57:00,2.7,-2.6,30.40,NE,51,0.0,0.0,78,0.00,,,0.00,32767.00,ALWS 1.0-beta,2013-02-10 06:57:00,
2013-02-10 02:02:00,1.8,-3.2,30.41,NE,51,0.0,0.0,79,0.00,,,0.00,32767.00,ALWS 1.0-beta,2013-02-10 07:02:00,
2013-02-10 02:07:00,1.5,-3.0,30.41,NE,51,0.0,0.0,81,0.00,,,0.00,32767.00,ALWS 1.0-beta,2013-02-10 07:07:00,
2013-02-10 02:12:00,1.8,-2.7,30.41,NE,51,0.0,0.0,81,0.00,,,0.00,32767.00,ALWS 1.0-beta,2013-02-10 07:12:00,
2013-02-10 02:17:00,1.8,-2.4,30.41,NE,51,0.0,0.0,82,0.00,,,0.00,32767.00,ALWS 1.0-beta,2013-02-10 07:17:00,
2013-02-10 02:22:00,2.5,-1.5,30.42,East,94,0.0,0.0,83,0.00,,,0.00,32767.00,ALWS 1.0-beta,2013-02-10 07:22:00,
2013-02-10 02:27:00,3.2,-0.8,30.42,East,94,0.0,0.0,83,0.00,,,0.00,32767.00,ALWS 1.0-beta,2013-02-10 07:27:00,
2013-02-10 02:32:00,4.5,0.5,30.42,East,94,0.0,0.0,83,0.00,,,0.00,32767.00,ALWS 1.0-beta,2013-02-10 07:32:00,
2013-02-10 02:37:00,4.6,-0.2,30.42,East,94,0.0,0.0,80,0.00,,,0.00,32767.00,ALWS 1.0-beta,2013-02-10 07:37:00,
2013-02-10 02:42:00,3.1,-2.2,30.42,East,94,0.0,0.0,78,0.00,,,0.00,32767.00,ALWS 1.0-beta,2013-02-10 07:42:00,
2013-02-10 02:47:00,2.7,-2.0,30.42,East,94,0.0,0.0,80,0.00,,,0.00,32767.00,ALWS 1.0-beta,2013-02-10 07:47:00,
2013-02-10 02:52:00,3.3,-1.2,30.42,East,94,0.0,0.0,81,0.00,,,0.00,32767.00,ALWS 1.0-beta,2013-02-10 07:52:00,
2013-02-10 02:57:00,3.4,-1.1,30.42,East,94,0.0,0.0,81,0.00,,,0.00,32767.00,ALWS 1.0-beta,2013-02-10 07:57:00,
2013-02-10 03:02:00,2.8,-2.0,30.42,East,94,0.0,0.0,80,0.00,,,0.00,32767.00,ALWS 1.0-beta,2013-02-10 08:02:00,
2013-02-10 03:07:00,2.1,-2.4,30.42,East,94,0.0,0.0,81,0.00,,,0.00,32767.00,ALWS 1.0-beta,2013-02-10 08:07:00,
2013-02-10 03:12:00,2.0,-2.5,30.42,East,94,0.0,0.0,81,0.00,,,0.00,32767.00,ALWS 1.0-beta,2013-02-10 08:12:00,
2013-02-10 03:17:00,1.5,-3.0,30.41,East,94,0.0,0.0,81,0.00,,,0.00,32767.00,ALWS 1.0-beta,2013-02-10 08:17:00,
2013-02-10 03:22:00,0.9,-3.5,30.42,East,94,0.0,0.0,81,0.00,,,0.00,32767.00,ALWS 1.0-beta,2013-02-10 08:22:00,
2013-02-10 03:27:00,0.8,-3.1,30.42,East,94,0.0,0.0,83,0.00,,,0.00,32767.00,ALWS 1.0-beta,2013-02-10 08:27:00,
2013-02-10 03:32:00,1.1,-2.8,30.42,East,94,0.0,0.0,83,0.00,,,0.00,32767.00,ALWS 1.0-beta,2013-02-10 08:32:00,
2013-02-10 03:37:00,0.8,-3.1,30.41,East,94,0.0,0.0,83,0.00,,,0.00,32767.00,ALWS 1.0-beta,2013-02-10 08:37:00,
2013-02-10 03:42:00,1.0,-2.7,30.41,East,94,0.0,0.0,84,0.00,,,0.00,32767.00,ALWS 1.0-beta,2013-02-10 08:42:00,
2013-02-10 03:47:00,0.5,-3.4,30.42,East,94,0.0,0.0,83,0.00,,,0.00,32767.00,ALWS 1.0-beta,2013-02-10 08:47:00,
2013-02-10 03:52:00,0.2,-3.5,30.42,East,94,0.0,0.0,84,0.00,,,0.00,32767.00,ALWS 1.0-beta,2013-02-10 08:52:00,
2013-02-10 03:57:00,0.4,-3.3,30.42,East,94,0.0,0.0,84,0.00,,,0.00,32767.00,ALWS 1.0-beta,2013-02-10 08:57:00,
2013-02-10 04:02:00,0.6,-3.1,30.42,East,94,0.0,0.0,84,0.00,,,0.00,32767.00,ALWS 1.0-beta,2013-02-10 09:02:00,
2013-02-10 04:07:00,0.2,-3.5,30.43,East,94,0.0,0.0,84,0.00,,,0.00,32767.00,ALWS 1.0-beta,2013-02-10 09:07:00,
2013-02-10 04:12:00,-0.5,-4.2,30.42,East,94,0.0,0.0,84,0.00,,,0.00,32767.00,ALWS 1.0-beta,2013-02-10 09:12:00,
2013-02-10 04:17:00,-0.6,-4.3,30.43,East,94,0.0,0.0,84,0.00,,,0.00,32767.00,ALWS 1.0-beta,2013-02-10 09:17:00,
2013-02-10 04:22:00,-0.3,-3.7,30.43,East,94,0.0,0.0,85,0.00,,,0.00,32767.00,ALWS 1.0-beta,2013-02-10 09:22:00,
2013-02-10 04:27:00,-0.2,-3.6,30.43,East,94,0.0,0.0,85,0.00,,,0.00,32767.00,ALWS 1.0-beta,2013-02-10 09:27:00,
2013-02-10 04:32:00,-0.5,-3.9,30.44,East,94,0.0,0.0,85,0.00,,,0.00,32767.00,ALWS 1.0-beta,2013-02-10 09:32:00,
2013-02-10 04:37:00,-0.8,-4.5,30.44,East,94,0.0,0.0,84,0.00,,,0.00,32767.00,ALWS 1.0-beta,2013-02-10 09:37:00,
2013-02-10 04:42:00,-0.9,-4.3,30.44,East,94,0.0,0.0,85,0.00,,,0.00,32767.00,ALWS 1.0-beta,2013-02-10 09:42:00,
2013-02-10 04:47:00,-0.4,-3.6,30.44,East,94,0.0,0.0,86,0.00,,,0.00,32767.00,ALWS 1.0-beta,2013-02-10 09:47:00,
2013-02-10 04:52:00,-0.6,-4.0,30.44,East,94,0.0,0.0,85,0.00,,,0.00,32767.00,ALWS 1.0-beta,2013-02-10 09:52:00,
2013-02-10 04:57:00,-0.6,-4.0,30.44,East,94,0.0,0.0,85,0.00,,,0.00,32767.00,ALWS 1.0-beta,2013-02-10 09:57:00,
2013-02-10 05:02:00,-0.6,-4.0,30.45,East,94,0.0,0.0,85,0.00,,,0.00,32767.00,ALWS 1.0-beta,2013-02-10 10:02:00,
2013-02-10 05:07:00,-0.9,-4.3,30.45,East,94,0.0,0.0,85,0.00,,,0.00,32767.00,ALWS 1.0-beta,2013-02-10 10:07:00,
2013-02-10 05:12:00,-1.2,-4.6,30.45,East,94,0.0,0.0,85,0.00,,,0.00,32767.00,ALWS 1.0-beta,2013-02-10 10:12:00,
2013-02-10 05:17:00,-1.1,-4.5,30.45,East,94,0.0,0.0,85,0.00,,,0.00,32767.00,ALWS 1.0-beta,2013-02-10 10:17:00,
2013-02-10 05:22:00,-1.4,-4.8,30.45,East,94,0.0,0.0,85,0.00,,,0.00,32767.00,ALWS 1.0-beta,2013-02-10 10:22:00,
2013-02-10 05:27:00,-1.5,-4.9,30.45,East,94,0.0,0.0,85,0.00,,,0.00,32767.00,ALWS 1.0-beta,2013-02-10 10:27:00,
2013-02-10 05:32:00,-1.8,-5.2,30.45,East,94,0.0,0.0,85,0.00,,,0.00,32767.00,ALWS 1.0-beta,2013-02-10 10:32:00,
2013-02-10 05:37:00,-2.0,-5.4,30.45,East,94,0.0,0.0,85,0.00,,,0.00,32767.00,ALWS 1.0-beta,2013-02-10 10:37:00,
2013-02-10 05:42:00,-2.2,-5.6,30.46,East,94,0.0,0.0,85,0.00,,,0.00,32767.00,ALWS 1.0-beta,2013-02-10 10:42:00,
2013-02-10 05:47:00,-2.1,-5.5,30.46,East,94,0.0,0.0,85,0.00,,,0.00,32767.00,ALWS 1.0-beta,2013-02-10 10:47:00,
2013-02-10 05:52:00,-2.1,-5.5,30.46,East,94,0.0,0.0,85,0.00,,,0.00,32767.00,ALWS 1.0-beta,2013-02-10 10:52:00,
2013-02-10 05:57:00,-2.3,-5.7,30.47,East,94,0.0,0.0,85,0.00,,,0.00,32767.00,ALWS 1.0-beta,2013-02-10 10:57:00,
2013-02-10 06:02:00,-2.4,-5.8,30.48,East,94,0.0,0.0,85,0.00,,,0.00,32767.00,ALWS 1.0-beta,2013-02-10 11:02:00,
2013-02-10 06:07:00,-2.4,-5.8,30.48,East,94,0.0,0.0,85,0.00,,,0.00,32767.00,ALWS 1.0-beta,2013-02-10 11:07:00,
2013-02-10 06:12:00,-2.7,-6.1,30.48,East,94,0.0,0.0,85,0.00,,,0.00,32767.00,ALWS 1.0-beta,2013-02-10 11:12:00,
2013-02-10 06:17:00,-2.3,-5.4,30.49,East,94,0.0,0.0,86,0.00,,,0.00,32767.00,ALWS 1.0-beta,2013-02-10 11:17:00,
2013-02-10 06:22:00,-2.2,-5.3,30.49,East,94,0.0,0.0,86,0.00,,,0.00,32767.00,ALWS 1.0-beta,2013-02-10 11:22:00,
2013-02-10 06:27:00,-2.3,-5.4,30.49,East,94,0.0,0.0,86,0.00,,,0.00,32767.00,ALWS 1.0-beta,2013-02-10 11:27:00,
2013-02-10 06:32:00,-2.2,-5.3,30.49,East,94,0.0,0.0,86,0.00,,,0.00,32767.00,ALWS 1.0-beta,2013-02-10 11:32:00,
2013-02-10 06:37:00,-2.0,-5.2,30.49,East,94,0.0,0.0,86,0.00,,,0.00,32767.00,ALWS 1.0-beta,2013-02-10 11:37:00,
2013-02-10 06:42:00,-2.5,-5.9,30.49,East,94,0.0,0.0,85,0.00,,,0.00,32767.00,ALWS 1.0-beta,2013-02-10 11:42:00,
2013-02-10 06:47:00,-2.6,-6.0,30.50,East,94,0.0,0.0,85,0.00,,,0.00,32767.00,ALWS 1.0-beta,2013-02-10 11:47:00,
2013-02-10 06:52:00,-2.8,-6.2,30.50,East,94,0.0,0.0,85,0.00,,,0.00,32767.00,ALWS 1.0-beta,2013-02-10 11:52:00,
2013-02-10 06:57:00,-2.8,-6.2,30.50,East,94,0.0,0.0,85,0.00,,,0.00,32767.00,ALWS 1.0-beta,2013-02-10 11:57:00,
2013-02-10 07:02:00,-2.6,-6.0,30.50,East,94,0.0,0.0,85,0.00,,,0.00,32767.00,ALWS 1.0-beta,2013-02-10 12:02:00,
2013-02-10 07:07:00,-2.3,-5.4,30.50,East,94,0.0,0.0,86,0.00,,,0.00,32767.00,ALWS 1.0-beta,2013-02-10 12:07:00,
2013-02-10 07:12:00,-2.6,-6.0,30.50,East,94,0.0,0.0,85,0.00,,,0.00,32767.00,ALWS 1.0-beta,2013-02-10 12:12:00,
2013-02-10 07:17:00,-2.7,-6.1,30.50,East,94,0.0,0.0,85,0.00,,,0.00,32767.00,ALWS 1.0-beta,2013-02-10 12:17:00,
2013-02-10 07:22:00,-2.9,-6.3,30.50,East,94,0.0,0.0,85,0.00,,,0.00,32767.00,ALWS 1.0-beta,2013-02-10 12:22:00,
2013-02-10 07:27:00,-2.7,-6.1,30.50,East,94,0.0,0.0,85,0.00,,,0.00,32767.00,ALWS 1.0-beta,2013-02-10 12:27:00,
2013-02-10 07:32:00,-2.2,-5.3,30.50,East,94,0.0,0.0,86,0.00,,,0.00,32767.00,ALWS 1.0-beta,2013-02-10 12:32:00,
2013-02-10 07:37:00,-2.0,-5.4,30.49,East,94,0.0,0.0,85,0.00,,,0.00,32767.00,ALWS 1.0-beta,2013-02-10 12:37:00,
2013-02-10 07:42:00,-1.8,-5.2,30.49,East,94,0.0,0.0,85,0.00,,,0.00,32767.00,ALWS 1.0-beta,2013-02-10 12:42:00,
2013-02-10 07:47:00,-1.8,-5.2,30.50,East,94,0.0,0.0,85,0.00,,,0.00,32767.00,ALWS 1.0-beta,2013-02-10 12:47:00,
2013-02-10 07:52:00,-1.0,-4.4,30.50,East,94,0.0,0.0,85,0.00,,,0.00,32767.00,ALWS 1.0-beta,2013-02-10 12:52:00,
2013-02-10 07:57:00,0.0,-3.4,30.50,East,94,0.0,0.0,85,0.00,,,0.00,32767.00,ALWS 1.0-beta,2013-02-10 12:57:00,
2013-02-10 08:02:00,0.7,-2.7,30.51,East,94,0.0,0.0,85,0.00,,,0.00,32767.00,ALWS 1.0-beta,2013-02-10 13:02:00,
2013-02-10 08:07:00,0.4,-3.3,30.51,East,94,0.0,0.0,84,0.00,,,0.00,32767.00,ALWS 1.0-beta,2013-02-10 13:07:00,
2013-02-10 08:12:00,0.9,-2.5,30.51,East,94,0.0,0.0,85,0.00,,,0.00,32767.00,ALWS 1.0-beta,2013-02-10 13:12:00,
2013-02-10 08:17:00,2.0,-1.7,30.51,East,94,0.0,0.0,84,0.00,,,0.00,32767.00,ALWS 1.0-beta,2013-02-10 13:17:00,
2013-02-10 08:22:00,2.9,-0.8,30.52,East,94,0.0,0.0,84,0.00,,,0.00,32767.00,ALWS 1.0-beta,2013-02-10 13:22:00,
2013-02-10 08:27:00,4.6,0.6,30.52,East,94,0.0,0.0,83,0.00,,,0.00,32767.00,ALWS 1.0-beta,2013-02-10 13:27:00,
2013-02-10 08:32:00,5.7,1.4,30.52,East,94,0.0,0.0,82,0.00,,,0.00,32767.00,ALWS 1.0-beta,2013-02-10 13:32:00,
2013-02-10 08:37:00,6.3,1.5,30.52,ESE,122,0.0,0.0,80,0.00,,,0.00,32767.00,ALWS 1.0-beta,2013-02-10 13:37:00,
2013-02-10 08:42:00,7.8,2.7,30.52,ESE,122,0.0,0.0,79,0.00,,,0.00,32767.00,ALWS 1.0-beta,2013-02-10 13:42:00,
2013-02-10 08:47:00,8.7,3.0,30.53,ESE,123,0.0,0.0,77,0.00,,,0.00,32767.00,ALWS 1.0-beta,2013-02-10 13:47:00,
2013-02-10 08:52:00,9.4,3.4,30.52,ESE,122,0.0,0.0,76,0.00,,,0.00,32767.00,ALWS 1.0-beta,2013-02-10 13:52:00,
2013-02-10 08:57:00,9.8,3.5,30.53,ESE,122,0.0,0.0,75,0.00,,,0.00,32767.00,ALWS 1.0-beta,2013-02-10 13:57:00,
2013-02-10 09:02:00,9.9,3.3,30.53,SE,126,0.0,0.0,74,0.00,,,0.00,32767.00,ALWS 1.0-beta,2013-02-10 14:02:00,
2013-02-10 09:07:00,10.4,3.8,30.53,SE,126,0.0,0.0,74,0.00,,,0.00,32767.00,ALWS 1.0-beta,2013-02-10 14:07:00,
2013-02-10 09:12:00,10.4,3.5,30.52,SE,125,0.0,0.0,73,0.00,,,0.00,32767.00,ALWS 1.0-beta,2013-02-10 14:12:00,
2013-02-10 09:17:00,10.4,3.2,30.53,SE,125,0.0,0.0,72,0.00,,,0.00,32767.00,ALWS 1.0-beta,2013-02-10 14:17:00,
2013-02-10 09:22:00,10.4,3.2,30.54,SE,125,0.0,0.0,72,0.00,,,0.00,32767.00,ALWS 1.0-beta,2013-02-10 14:22:00,
2013-02-10 09:27:00,10.5,3.6,30.54,SE,130,0.0,0.0,73,0.00,,,0.00,32767.00,ALWS 1.0-beta,2013-02-10 14:27:00,
2013-02-10 09:32:00,10.6,3.7,30.55,SE,132,0.0,0.0,73,0.00,,,0.00,32767.00,ALWS 1.0-beta,2013-02-10 14:32:00,
2013-02-10 09:37:00,10.8,3.6,30.55,SE,132,0.0,0.0,72,0.00,,,0.00,32767.00,ALWS 1.0-beta,2013-02-10 14:37:00,
2013-02-10 09:42:00,11.2,4.0,30.54,SE,132,0.0,0.0,72,0.00,,,0.00,32767.00,ALWS 1.0-beta,2013-02-10 14:42:00,
2013-02-10 09:47:00,11.9,4.3,30.55,SE,136,0.0,0.0,71,0.00,,,0.00,32767.00,ALWS 1.0-beta,2013-02-10 14:47:00,
2013-02-10 09:52:00,12.6,4.7,30.54,SE,136,0.0,0.0,70,0.00,,,0.00,32767.00,ALWS 1.0-beta,2013-02-10 14:52:00,
2013-02-10 09:57:00,12.8,4.2,30.54,SE,136,0.0,0.0,68,0.00,,,0.00,32767.00,ALWS 1.0-beta,2013-02-10 14:57:00,
2013-02-10 10:02:00,12.7,4.5,30.54,SE,136,0.0,0.0,69,0.00,,,0.00,32767.00,ALWS 1.0-beta,2013-02-10 15:02:00,
2013-02-10 10:07:00,13.6,4.7,30.54,SE,136,0.0,0.0,67,0.00,,,0.00,32767.00,ALWS 1.0-beta,2013-02-10 15:07:00,
2013-02-10 10:12:00,14.5,5.2,30.54,SE,136,0.0,0.0,66,0.00,,,0.00,32767.00,ALWS 1.0-beta,2013-02-10 15:12:00,
2013-02-10 10:17:00,14.9,4.9,30.54,SE,136,0.0,0.0,64,0.00,,,0.00,32767.00,ALWS 1.0-beta,2013-02-10 15:17:00,
2013-02-10 10:22:00,15.0,5.0,30.53,SE,136,0.0,0.0,64,0.00,,,0.00,32767.00,ALWS 1.0-beta,2013-02-10 15:22:00,
2013-02-10 10:27:00,15.5,5.2,30.54,ESE,119,0.0,0.0,63,0.00,,,0.00,32767.00,ALWS 1.0-beta,2013-02-10 15:27:00,
2013-02-10 10:32:00,16.0,5.3,30.54,SE,130,0.0,0.0,62,0.00,,,0.00,32767.00,ALWS 1.0-beta,2013-02-10 15:32:00,
2013-02-10 10:37:00,16.2,5.5,30.54,SE,130,0.0,0.0,62,0.00,,,0.00,32767.00,ALWS 1.0-beta,2013-02-10 15:37:00,
2013-02-10 10:42:00,16.6,5.5,30.54,SE,129,0.0,0.0,61,0.00,,,0.00,32767.00,ALWS 1.0-beta,2013-02-10 15:42:00,
2013-02-10 10:47:00,17.0,5.5,30.54,SSE,160,0.0,0.0,60,0.00,,,0.00,32767.00,ALWS 1.0-beta,2013-02-10 15:47:00,
2013-02-10 10:52:00,17.7,6.6,30.54,SSE,160,0.0,1.0,61,0.00,,,0.00,32767.00,ALWS 1.0-beta,2013-02-10 15:52:00,
2013-02-10 10:57:00,17.8,6.3,30.53,SE,128,0.0,1.0,60,0.00,,,0.00,32767.00,ALWS 1.0-beta,2013-02-10 15:57:00,
2013-02-10 11:02:00,18.3,6.8,30.53,ESE,118,0.0,0.0,60,0.00,,,0.00,32767.00,ALWS 1.0-beta,2013-02-10 16:02:00,
2013-02-10 11:07:00,18.2,5.9,30.53,SE,132,0.0,4.0,58,0.00,,,0.00,32767.00,ALWS 1.0-beta,2013-02-10 16:07:00,
2013-02-10 11:12:00,18.3,6.0,30.53,ESE,123,0.0,0.0,58,0.00,,,0.00,32767.00,ALWS 1.0-beta,2013-02-10 16:12:00,
2013-02-10 11:17:00,18.6,5.9,30.53,SE,132,0.0,0.0,57,0.00,,,0.00,32767.00,ALWS 1.0-beta,2013-02-10 16:17:00,
2013-02-10 11:22:00,19.0,6.3,30.52,SE,124,0.0,0.0,57,0.00,,,0.01,32767.00,ALWS 1.0-beta,2013-02-10 16:22:00,
2013-02-10 11:27:00,19.0,6.3,30.52,SE,146,1.0,3.0,57,0.00,,,0.01,32767.00,ALWS 1.0-beta,2013-02-10 16:27:00,
2013-02-10 11:34:00,19.3,6.6,30.52,ESE,109,0.0,0.0,57,0.00,,,0.01,32767.00,ALWS 1.0-beta,2013-02-10 16:34:00,
2013-02-10 11:39:00,19.3,6.2,30.51,East,100,0.0,1.0,56,0.00,,,0.01,32767.00,ALWS 1.0-beta,2013-02-10 16:39:00,
2013-02-10 11:43:00,19.7,6.6,30.51,SE,127,2.0,2.0,56,0.00,,,0.01,32767.00,ALWS 1.0-beta,2013-02-10 16:43:00,
2013-02-10 11:48:00,20.6,7.0,30.51,SE,134,0.0,0.0,55,0.00,,,0.01,32767.00,ALWS 1.0-beta,2013-02-10 16:48:00,
2013-02-10 11:54:00,20.8,6.4,30.51,SE,134,0.0,0.0,53,0.00,,,0.01,32767.00,ALWS 1.0-beta,2013-02-10 16:54:00,
2013-02-10 11:59:00,20.7,6.3,30.50,ESE,117,0.0,1.0,53,0.00,,,0.01,32767.00,ALWS 1.0-beta,2013-02-10 16:59:00,
2013-02-10 12:03:00,21.0,6.6,30.50,East,91,0.0,1.0,53,0.00,,,0.01,32767.00,ALWS 1.0-beta,2013-02-10 17:03:00,
2013-02-10 12:09:00,21.2,5.9,30.50,ESE,122,1.0,1.0,51,0.00,,,0.01,32767.00,ALWS 1.0-beta,2013-02-10 17:09:00,
2013-02-10 12:13:00,21.6,6.7,30.50,SSE,151,0.0,2.0,52,0.00,,,0.01,32767.00,ALWS 1.0-beta,2013-02-10 17:13:00,
2013-02-10 12:19:00,22.1,7.6,30.49,ESE,123,6.0,6.0,53,0.00,,,0.01,32767.00,ALWS 1.0-beta,2013-02-10 17:19:00,
2013-02-10 12:24:00,22.0,7.1,30.49,ESE,119,2.0,2.0,52,0.00,,,0.01,32767.00,ALWS 1.0-beta,2013-02-10 17:24:00,
2013-02-10 12:29:00,22.4,7.4,30.49,SE,139,1.0,2.0,52,0.00,,,0.01,32767.00,ALWS 1.0-beta,2013-02-10 17:29:00,
2013-02-10 12:34:00,22.9,7.9,30.48,SW,215,0.0,0.0,52,0.00,,,0.01,32767.00,ALWS 1.0-beta,2013-02-10 17:34:00,
2013-02-10 12:39:00,23.1,7.7,30.48,SE,142,0.0,0.0,51,0.00,,,0.01,32767.00,ALWS 1.0-beta,2013-02-10 17:39:00,
2013-02-10 12:44:00,23.3,7.4,30.48,SE,140,4.0,4.0,50,0.00,,,0.01,32767.00,ALWS 1.0-beta,2013-02-10 17:44:00,
2013-02-10 12:48:00,23.3,7.0,30.47,SSE,157,1.0,1.0,49,0.00,,,0.01,32767.00,ALWS 1.0-beta,2013-02-10 17:48:00,
2013-02-10 12:54:00,23.4,7.5,30.47,SE,129,0.0,2.0,50,0.00,,,0.01,32767.00,ALWS 1.0-beta,2013-02-10 17:54:00,
2013-02-10 12:58:00,24.0,8.5,30.47,South,169,0.0,1.0,51,0.00,,,0.01,32767.00,ALWS 1.0-beta,2013-02-10 17:58:00,
2013-02-10 13:03:00,24.1,7.3,30.47,ESE,119,0.0,3.0,48,0.00,,,0.01,32767.00,ALWS 1.0-beta,2013-02-10 18:03:00,
2013-02-10 13:08:00,24.4,8.0,30.46,SE,144,0.0,5.0,49,0.00,,,0.01,32767.00,ALWS 1.0-beta,2013-02-10 18:08:00,
2013-02-10 13:13:00,24.7,7.8,30.46,SE,124,0.0,1.0,48,0.00,,,0.01,32767.00,ALWS 1.0-beta,2013-02-10 18:13:00,
2013-02-10 13:18:00,24.8,7.0,30.46,East,96,0.0,2.0,46,0.00,,,0.01,32767.00,ALWS 1.0-beta,2013-02-10 18:18:00,
2013-02-10 13:23:00,24.9,7.1,30.45,ESE,111,0.0,0.0,46,0.00,,,0.01,32767.00,ALWS 1.0-beta,2013-02-10 18:23:00,
2013-02-10 13:28:00,25.6,7.7,30.45,SE,138,2.0,2.0,46,0.00,,,0.01,32767.00,ALWS 1.0-beta,2013-02-10 18:28:00,
2013-02-10 13:33:00,25.4,6.5,30.45,ESE,120,0.0,0.0,44,0.00,,,0.01,32767.00,ALWS 1.0-beta,2013-02-10 18:33:00,
2013-02-10 13:38:00,25.4,8.0,30.45,ESE,123,2.0,2.0,47,0.00,,,0.01,32767.00,ALWS 1.0-beta,2013-02-10 18:38:00,
2013-02-10 13:43:00,25.9,7.0,30.45,SE,138,0.0,0.0,44,0.00,,,0.01,32767.00,ALWS 1.0-beta,2013-02-10 18:43:00,
2013-02-10 13:48:00,26.1,7.7,30.45,SE,142,0.0,0.0,45,0.00,,,0.01,32767.00,ALWS 1.0-beta,2013-02-10 18:48:00,
2013-02-10 13:53:00,26.2,8.3,30.45,SSE,155,0.0,1.0,46,0.00,,,0.01,32767.00,ALWS 1.0-beta,2013-02-10 18:53:00,
2013-02-10 13:58:00,26.2,6.8,30.45,SE,129,0.0,0.0,43,0.00,,,0.01,32767.00,ALWS 1.0-beta,2013-02-10 18:58:00,
2013-02-10 14:03:00,26.5,7.6,30.45,ENE,78,0.0,2.0,44,0.00,,,0.01,32767.00,ALWS 1.0-beta,2013-02-10 19:03:00,
2013-02-10 14:08:00,26.7,7.7,30.45,ESE,112,0.0,0.0,44,0.00,,,0.01,32767.00,ALWS 1.0-beta,2013-02-10 19:08:00,
2013-02-10 14:13:00,27.1,7.6,30.45,SE,133,0.0,0.0,43,0.00,,,0.01,32767.00,ALWS 1.0-beta,2013-02-10 19:13:00,
2013-02-10 14:18:00,27.6,8.0,30.45,SE,133,1.0,1.0,43,0.00,,,0.01,32767.00,ALWS 1.0-beta,2013-02-10 19:18:00,
2013-02-10 14:23:00,27.7,7.6,30.45,SE,133,0.0,0.0,42,0.00,,,0.01,32767.00,ALWS 1.0-beta,2013-02-10 19:23:00,
2013-02-10 14:28:00,27.8,7.2,30.47,SE,134,0.0,0.0,41,0.00,,,0.01,32767.00,ALWS 1.0-beta,2013-02-10 19:28:00,
2013-02-10 14:33:00,28.2,6.4,30.46,South,190,0.0,0.0,39,0.00,,,0.01,32767.00,ALWS 1.0-beta,2013-02-10 19:33:00,
2013-02-10 14:39:00,28.3,7.6,30.46,South,190,0.0,0.0,41,0.00,,,0.01,32767.00,ALWS 1.0-beta,2013-02-10 19:39:00,
2013-02-10 14:44:00,28.7,8.5,30.46,South,190,0.0,0.0,42,0.00,,,0.01,32767.00,ALWS 1.0-beta,2013-02-10 19:44:00,
2013-02-10 14:49:00,28.5,7.8,30.45,South,190,0.0,0.0,41,0.00,,,0.01,32767.00,ALWS 1.0-beta,2013-02-10 19:49:00,
2013-02-10 14:54:00,28.8,7.5,30.45,SSE,155,0.0,0.0,40,0.00,,,0.01,32767.00,ALWS 1.0-beta,2013-02-10 19:54:00,
2013-02-10 14:59:00,29.0,7.7,30.44,East,86,0.0,0.0,40,0.00,,,0.01,32767.00,ALWS 1.0-beta,2013-02-10 19:59:00,
2013-02-10 15:04:00,29.1,8.4,30.43,ENE,73,0.0,0.0,41,0.00,,,0.01,32767.00,ALWS 1.0-beta,2013-02-10 20:04:00,
2013-02-10 15:09:00,28.9,9.2,30.43,ENE,74,0.0,0.0,43,0.00,,,0.02,32767.00,ALWS 1.0-beta,2013-02-10 20:09:00,
2013-02-10 15:14:00,28.9,8.2,30.43,ENE,74,2.0,3.0,41,0.00,,,0.02,32767.00,ALWS 1.0-beta,2013-02-10 20:14:00,
2013-02-10 15:19:00,29.0,8.3,30.43,ESE,119,0.0,2.0,41,0.00,,,0.02,32767.00,ALWS 1.0-beta,2013-02-10 20:19:00,
2013-02-10 15:24:00,29.0,8.3,30.42,ESE,118,0.0,0.0,41,0.00,,,0.02,32767.00,ALWS 1.0-beta,2013-02-10 20:24:00,
2013-02-10 15:29:00,29.3,8.5,30.42,SSE,161,0.0,0.0,41,0.00,,,0.02,32767.00,ALWS 1.0-beta,2013-02-10 20:29:00,
2013-02-10 15:33:00,29.5,8.2,30.42,SE,134,1.0,1.0,40,0.00,,,0.02,32767.00,ALWS 1.0-beta,2013-02-10 20:33:00,
2013-02-10 15:38:00,29.3,7.4,30.42,East,93,0.0,0.0,39,0.00,,,0.02,32767.00,ALWS 1.0-beta,2013-02-10 20:38:00,
2013-02-10 15:43:00,30.1,8.1,30.42,East,93,0.0,0.0,39,0.00,,,0.02,32767.00,ALWS 1.0-beta,2013-02-10 20:43:00,
2013-02-10 15:48:00,29.6,7.1,30.42,East,87,0.0,0.0,38,0.00,,,0.02,32767.00,ALWS 1.0-beta,2013-02-10 20:48:00,
2013-02-10 15:53:00,29.7,7.8,30.43,East,91,0.0,0.0,39,0.00,,,0.02,32767.00,ALWS 1.0-beta,2013-02-10 20:53:00,
2013-02-10 15:58:00,29.4,10.2,30.43,ESE,104,0.0,0.0,44,0.00,,,0.02,32767.00,ALWS 1.0-beta,2013-02-10 20:58:00,
2013-02-10 16:03:00,29.8,7.3,30.43,SE,130,0.0,0.0,38,0.00,,,0.02,32767.00,ALWS 1.0-beta,2013-02-10 21:03:00,
2013-02-10 16:08:00,29.6,7.7,30.43,SE,130,0.0,0.0,39,0.00,,,0.02,32767.00,ALWS 1.0-beta,2013-02-10 21:08:00,
2013-02-10 16:13:00,29.6,7.1,30.42,SE,129,0.0,0.0,38,0.00,,,0.02,32767.00,ALWS 1.0-beta,2013-02-10 21:13:00,
2013-02-10 16:18:00,29.7,7.2,30.43,SE,130,0.0,0.0,38,0.00,,,0.02,32767.00,ALWS 1.0-beta,2013-02-10 21:18:00,
2013-02-10 16:23:00,29.3,7.4,30.42,SE,129,0.0,0.0,39,0.00,,,0.02,32767.00,ALWS 1.0-beta,2013-02-10 21:23:00,
2013-02-10 16:28:00,29.2,7.3,30.42,SE,130,0.0,0.0,39,0.00,,,0.02,32767.00,ALWS 1.0-beta,2013-02-10 21:28:00,
2013-02-10 16:33:00,28.8,7.5,30.41,SE,130,0.0,0.0,40,0.00,,,0.02,32767.00,ALWS 1.0-beta,2013-02-10 21:33:00,
2013-02-10 16:38:00,28.9,7.1,30.41,SE,130,0.0,0.0,39,0.00,,,0.02,32767.00,ALWS 1.0-beta,2013-02-10 21:38:00,
2013-02-10 16:43:00,29.1,7.2,30.41,SE,129,0.0,0.0,39,0.00,,,0.02,32767.00,ALWS 1.0-beta,2013-02-10 21:43:00,
2013-02-10 16:48:00,29.3,6.9,30.41,SE,130,0.0,0.0,38,0.00,,,0.02,32767.00,ALWS 1.0-beta,2013-02-10 21:48:00,
2013-02-10 16:53:00,29.1,7.2,30.42,SE,130,0.0,0.0,39,0.00,,,0.02,32767.00,ALWS 1.0-beta,2013-02-10 21:53:00,
2013-02-10 16:58:00,28.7,6.9,30.42,SE,130,0.0,0.0,39,0.00,,,0.02,32767.00,ALWS 1.0-beta,2013-02-10 21:58:00,
2013-02-10 17:03:00,27.7,8.1,30.42,SE,129,0.0,0.0,43,0.00,,,0.02,32767.00,ALWS 1.0-beta,2013-02-10 22:03:00,
2013-02-10 17:08:00,27.3,7.2,30.42,SE,130,0.0,0.0,42,0.00,,,0.02,32767.00,ALWS 1.0-beta,2013-02-10 22:08:00,
2013-02-10 17:13:00,27.0,6.4,30.42,SE,130,0.0,0.0,41,0.00,,,0.02,32767.00,ALWS 1.0-beta,2013-02-10 22:13:00,
2013-02-10 17:18:00,26.6,8.1,30.43,SE,129,0.0,0.0,45,0.00,,,0.02,32767.00,ALWS 1.0-beta,2013-02-10 22:18:00,
2013-02-10 17:23:00,25.8,9.7,30.42,SE,130,0.0,0.0,50,0.00,,,0.02,32767.00,ALWS 1.0-beta,2013-02-10 22:23:00,
2013-02-10 17:28:00,25.4,8.0,30.42,SE,130,0.0,0.0,47,0.00,,,0.02,32767.00,ALWS 1.0-beta,2013-02-10 22:28:00,
2013-02-10 17:33:00,24.8,9.7,30.42,SE,129,0.0,0.0,52,0.00,,,0.02,32767.00,ALWS 1.0-beta,2013-02-10 22:33:00,
2013-02-10 17:38:00,23.9,12.4,30.42,SE,129,0.0,0.0,61,0.00,,,0.02,32767.00,ALWS 1.0-beta,2013-02-10 22:38:00,
2013-02-10 17:43:00,23.9,11.7,30.42,SE,130,0.0,0.0,59,0.00,,,0.02,32767.00,ALWS 1.0-beta,2013-02-10 22:43:00,
2013-02-10 17:48:00,23.8,10.0,30.42,SE,130,0.0,0.0,55,0.00,,,0.02,32767.00,ALWS 1.0-beta,2013-02-10 22:48:00,
2013-02-10 17:53:00,23.4,10.4,30.42,SE,130,0.0,0.0,57,0.00,,,0.02,32767.00,ALWS 1.0-beta,2013-02-10 22:53:00,
2013-02-10 17:58:00,23.1,11.7,30.42,SE,130,0.0,0.0,61,0.00,,,0.02,32767.00,ALWS 1.0-beta,2013-02-10 22:58:00,
2013-02-10 18:03:00,22.6,11.9,30.42,SE,130,0.0,0.0,63,0.00,,,0.02,32767.00,ALWS 1.0-beta,2013-02-10 23:03:00,
2013-02-10 18:08:00,20.7,11.1,30.42,SE,129,0.0,0.0,66,0.00,,,0.02,32767.00,ALWS 1.0-beta,2013-02-10 23:08:00,
2013-02-10 18:13:00,19.8,10.6,30.42,SE,129,0.0,0.0,67,0.00,,,0.02,32767.00,ALWS 1.0-beta,2013-02-10 23:13:00,
2013-02-10 18:18:00,19.3,10.8,30.42,SE,130,0.0,0.0,69,0.00,,,0.02,32767.00,ALWS 1.0-beta,2013-02-10 23:18:00,
2013-02-10 18:23:00,19.2,9.7,30.42,SE,129,0.0,0.0,66,0.00,,,0.02,32767.00,ALWS 1.0-beta,2013-02-10 23:23:00,
2013-02-10 18:28:00,19.7,10.2,30.42,SE,130,0.0,0.0,66,0.00,,,0.02,32767.00,ALWS 1.0-beta,2013-02-10 23:28:00,
2013-02-10 18:33:00,19.7,9.9,30.42,SE,129,0.0,0.0,65,0.00,,,0.02,32767.00,ALWS 1.0-beta,2013-02-10 23:33:00,
2013-02-10 18:39:00,19.4,9.9,30.42,SE,130,0.0,0.0,66,0.00,,,0.02,32767.00,ALWS 1.0-beta,2013-02-10 23:39:00,
2013-02-10 18:43:00,19.0,9.5,30.42,SE,129,0.0,0.0,66,0.00,,,0.02,32767.00,ALWS 1.0-beta,2013-02-10 23:43:00,
2013-02-10 18:48:00,18.0,9.6,30.42,SE,130,0.0,0.0,69,0.00,,,0.02,32767.00,ALWS 1.0-beta,2013-02-10 23:48:00,
2013-02-10 18:54:00,17.0,9.6,30.42,SE,129,0.0,0.0,72,0.00,,,0.02,32767.00,ALWS 1.0-beta,2013-02-10 23:54:00,
2013-02-10 18:58:00,17.0,9.2,30.42,SE,130,0.0,0.0,71,0.00,,,0.02,32767.00,ALWS 1.0-beta,2013-02-10 23:58:00,
2013-02-10 19:03:00,17.2,9.7,30.42,SE,130,0.0,0.0,72,0.00,,,0.02,32767.00,ALWS 1.0-beta,2013-02-11 00:03:00,
2013-02-10 19:08:00,17.3,9.2,30.42,SE,130,0.0,0.0,70,0.00,,,0.02,32767.00,ALWS 1.0-beta,2013-02-11 00:08:00,
2013-02-10 19:13:00,17.2,9.1,30.42,SE,130,0.0,0.0,70,0.00,,,0.02,32767.00,ALWS 1.0-beta,2013-02-11 00:13:00,
2013-02-10 19:18:00,17.3,9.2,30.42,SE,129,0.0,0.0,70,0.00,,,0.02,32767.00,ALWS 1.0-beta,2013-02-11 00:18:00,
2013-02-10 19:23:00,17.2,9.1,30.42,SE,130,0.0,0.0,70,0.00,,,0.02,32767.00,ALWS 1.0-beta,2013-02-11 00:23:00,
2013-02-10 19:28:00,16.4,8.7,30.42,SE,130,0.0,0.0,71,0.00,,,0.02,32767.00,ALWS 1.0-beta,2013-02-11 00:28:00,
2013-02-10 19:33:00,16.2,8.8,30.42,SE,130,0.0,0.0,72,0.00,,,0.02,32767.00,ALWS 1.0-beta,2013-02-11 00:33:00,
2013-02-10 19:38:00,15.8,8.7,30.42,SE,129,0.0,0.0,73,0.00,,,0.02,32767.00,ALWS 1.0-beta,2013-02-11 00:38:00,
2013-02-10 19:43:00,15.6,8.5,30.41,SE,130,0.0,0.0,73,0.00,,,0.02,32767.00,ALWS 1.0-beta,2013-02-11 00:43:00,
2013-02-10 19:48:00,15.4,8.9,30.42,SE,130,0.0,0.0,75,0.00,,,0.02,32767.00,ALWS 1.0-beta,2013-02-11 00:48:00,
2013-02-10 19:53:00,14.7,7.9,30.42,SE,129,0.0,0.0,74,0.00,,,0.02,32767.00,ALWS 1.0-beta,2013-02-11 00:53:00,
2013-02-10 19:58:00,14.5,8.3,30.42,SE,130,0.0,0.0,76,0.00,,,0.02,32767.00,ALWS 1.0-beta,2013-02-11 00:58:00,
2013-02-10 20:03:00,14.9,8.4,30.42,SE,130,0.0,0.0,75,0.00,,,0.02,32767.00,ALWS 1.0-beta,2013-02-11 01:03:00,
2013-02-10 20:08:00,15.0,8.2,30.42,SE,130,0.0,0.0,74,0.00,,,0.02,32767.00,ALWS 1.0-beta,2013-02-11 01:08:00,
2013-02-10 20:13:00,15.0,8.2,30.42,SE,129,0.0,0.0,74,0.00,,,0.02,32767.00,ALWS 1.0-beta,2013-02-11 01:13:00,
2013-02-10 20:18:00,15.0,8.2,30.41,SE,130,0.0,0.0,74,0.00,,,0.02,32767.00,ALWS 1.0-beta,2013-02-11 01:18:00,
2013-02-10 20:23:00,14.3,7.8,30.41,SE,130,0.0,0.0,75,0.00,,,0.02,32767.00,ALWS 1.0-beta,2013-02-11 01:23:00,
2013-02-10 20:28:00,14.1,7.9,30.41,SE,129,0.0,0.0,76,0.00,,,0.02,32767.00,ALWS 1.0-beta,2013-02-11 01:28:00,
2013-02-10 20:33:00,13.7,7.8,30.41,SE,130,0.0,0.0,77,0.00,,,0.02,32767.00,ALWS 1.0-beta,2013-02-11 01:33:00,
2013-02-10 20:38:00,13.4,7.8,30.41,SE,130,0.0,0.0,78,0.00,,,0.02,32767.00,ALWS 1.0-beta,2013-02-11 01:38:00,
2013-02-10 20:43:00,13.5,7.9,30.41,SE,129,0.0,0.0,78,0.00,,,0.02,32767.00,ALWS 1.0-beta,2013-02-11 01:43:00,
2013-02-10 20:48:00,13.4,8.1,30.41,SE,130,0.0,0.0,79,0.00,,,0.02,32767.00,ALWS 1.0-beta,2013-02-11 01:48:00,
2013-02-10 20:53:00,13.9,8.6,30.41,SE,129,0.0,0.0,79,0.00,,,0.02,32767.00,ALWS 1.0-beta,2013-02-11 01:53:00,
2013-02-10 20:58:00,14.3,9.0,30.40,SE,129,0.0,0.0,79,0.00,,,0.02,32767.00,ALWS 1.0-beta,2013-02-11 01:58:00,
2013-02-10 21:03:00,14.3,9.0,30.40,SE,129,0.0,0.0,79,0.00,,,0.02,32767.00,ALWS 1.0-beta,2013-02-11 02:03:00,
2013-02-10 21:08:00,14.0,8.4,30.40,SE,130,0.0,0.0,78,0.00,,,0.02,32767.00,ALWS 1.0-beta,2013-02-11 02:08:00,
2013-02-10 21:13:00,14.1,8.5,30.40,SE,130,0.0,0.0,78,0.00,,,0.02,32767.00,ALWS 1.0-beta,2013-02-11 02:13:00,
2013-02-10 21:18:00,14.4,9.4,30.39,SE,130,0.0,0.0,80,0.00,,,0.02,32767.00,ALWS 1.0-beta,2013-02-11 02:18:00,
2013-02-10 21:23:00,14.2,9.2,30.39,SE,130,0.0,0.0,80,0.00,,,0.02,32767.00,ALWS 1.0-beta,2013-02-11 02:23:00,
2013-02-10 21:28:00,13.9,8.9,30.39,SE,130,0.0,0.0,80,0.00,,,0.02,32767.00,ALWS 1.0-beta,2013-02-11 02:28:00,
2013-02-10 21:33:00,13.8,8.8,30.39,SE,129,0.0,0.0,80,0.00,,,0.02,32767.00,ALWS 1.0-beta,2013-02-11 02:33:00,
2013-02-10 21:38:00,14.1,9.4,30.39,SE,129,0.0,0.0,81,0.00,,,0.02,32767.00,ALWS 1.0-beta,2013-02-11 02:38:00,
2013-02-10 21:43:00,14.5,9.5,30.39,SE,130,0.0,0.0,80,0.00,,,0.02,32767.00,ALWS 1.0-beta,2013-02-11 02:43:00,
2013-02-10 21:48:00,15.0,9.7,30.38,SE,130,0.0,0.0,79,0.00,,,0.02,32767.00,ALWS 1.0-beta,2013-02-11 02:48:00,
2013-02-10 21:53:00,15.4,10.1,30.39,SE,130,0.0,0.0,79,0.00,,,0.02,32767.00,ALWS 1.0-beta,2013-02-11 02:53:00,
2013-02-10 21:58:00,15.5,9.9,30.38,SE,129,0.0,0.0,78,0.00,,,0.02,32767.00,ALWS 1.0-beta,2013-02-11 02:58:00,
2013-02-10 22:03:00,15.7,9.8,30.38,SE,130,0.0,0.0,77,0.00,,,0.02,32767.00,ALWS 1.0-beta,2013-02-11 03:03:00,
2013-02-10 22:08:00,16.1,10.2,30.38,SE,130,0.0,0.0,77,0.00,,,0.02,32767.00,ALWS 1.0-beta,2013-02-11 03:08:00,
2013-02-10 22:13:00,16.4,10.5,30.38,SE,129,0.0,0.0,77,0.00,,,0.02,32767.00,ALWS 1.0-beta,2013-02-11 03:13:00,
2013-02-10 22:18:00,16.6,10.9,30.38,SE,129,0.0,0.0,78,0.00,,,0.02,32767.00,ALWS 1.0-beta,2013-02-11 03:18:00,
2013-02-10 22:23:00,16.7,11.1,30.38,SE,130,0.0,0.0,78,0.00,,,0.02,32767.00,ALWS 1.0-beta,2013-02-11 03:23:00,
2013-02-10 22:28:00,17.0,11.1,30.37,SE,130,0.0,0.0,77,0.00,,,0.02,32767.00,ALWS 1.0-beta,2013-02-11 03:28:00,
2013-02-10 22:33:00,17.4,11.7,30.37,SE,130,0.0,0.0,78,0.00,,,0.02,32767.00,ALWS 1.0-beta,2013-02-11 03:33:00,
2013-02-10 22:38:00,17.6,12.2,30.37,SE,130,0.0,0.0,79,0.00,,,0.02,32767.00,ALWS 1.0-beta,2013-02-11 03:38:00,
2013-02-10 22:43:00,17.7,11.7,30.37,SE,130,0.0,0.0,77,0.00,,,0.02,32767.00,ALWS 1.0-beta,2013-02-11 03:43:00,
2013-02-10 22:48:00,17.9,11.9,30.36,SE,129,0.0,0.0,77,0.00,,,0.02,32767.00,ALWS 1.0-beta,2013-02-11 03:48:00,
2013-02-10 22:53:00,18.0,12.3,30.36,SE,129,0.0,0.0,78,0.00,,,0.02,32767.00,ALWS 1.0-beta,2013-02-11 03:53:00,
2013-02-10 22:58:00,18.1,12.7,30.37,SE,130,0.0,0.0,79,0.00,,,0.02,32767.00,ALWS 1.0-beta,2013-02-11 03:58:00,
2013-02-10 23:02:00,19.5,14.1,30.36,SE,129,0.0,0.0,79,0.00,,,0.02,32767.00,ALWS 1.0-beta,2013-02-11 04:02:00,
2013-02-10 23:03:00,18.2,12.8,30.37,SE,130,0.0,0.0,79,0.00,,,0.02,32767.00,ALWS 1.0-beta,2013-02-11 04:03:00,
2013-02-10 23:08:00,18.4,13.3,30.37,SE,130,0.0,0.0,80,0.00,,,0.02,32767.00,ALWS 1.0-beta,2013-02-11 04:08:00,
2013-02-10 23:13:00,18.4,13.6,30.37,SE,129,0.0,0.0,81,0.00,,,0.02,32767.00,ALWS 1.0-beta,2013-02-11 04:13:00,
2013-02-10 23:18:00,18.4,13.6,30.37,SE,130,0.0,0.0,81,0.00,,,0.02,32767.00,ALWS 1.0-beta,2013-02-11 04:18:00,
2013-02-10 23:23:00,18.4,13.6,30.37,SE,130,0.0,0.0,81,0.00,,,0.02,32767.00,ALWS 1.0-beta,2013-02-11 04:23:00,
2013-02-10 23:28:00,18.6,13.2,30.37,SE,130,0.0,0.0,79,0.00,,,0.02,32767.00,ALWS 1.0-beta,2013-02-11 04:28:00,
2013-02-10 23:29:00,19.6,14.2,30.36,SE,129,0.0,0.0,79,0.00,,,0.02,32767.00,ALWS 1.0-beta,2013-02-11 04:29:00,
2013-02-10 23:30:00,19.6,14.2,30.36,SE,130,0.0,0.0,79,0.00,,,0.02,32767.00,ALWS 1.0-beta,2013-02-11 04:30:00,
2013-02-10 23:31:00,19.7,14.3,30.35,SE,130,0.0,0.0,79,0.00,,,0.02,32767.00,ALWS 1.0-beta,2013-02-11 04:31:00,
2013-02-10 23:33:00,18.8,13.4,30.37,SE,129,0.0,0.0,79,0.00,,,0.02,32767.00,ALWS 1.0-beta,2013-02-11 04:33:00,
2013-02-10 23:38:00,18.9,13.2,30.36,SE,130,0.0,0.0,78,0.00,,,0.02,32767.00,ALWS 1.0-beta,2013-02-11 04:38:00,
2013-02-10 23:43:00,19.1,14.0,30.36,SE,130,0.0,0.0,80,0.00,,,0.02,32767.00,ALWS 1.0-beta,2013-02-11 04:43:00,
2013-02-10 23:48:00,19.2,14.1,30.36,SE,129,0.0,0.0,80,0.00,,,0.02,32767.00,ALWS 1.0-beta,2013-02-11 04:48:00,
2013-02-10 23:53:00,19.3,14.4,30.36,SE,130,0.0,0.0,81,0.00,,,0.02,32767.00,ALWS 1.0-beta,2013-02-11 04:53:00,
2013-02-10 23:58:00,19.4,13.7,30.36,SE,130,0.0,0.0,78,0.00,,,0.02,32767.00,ALWS 1.0-beta,2013-02-11 04:58:00,